createdAt,value
2022-08-12T00:00:56.042Z,1.70
2022-08-12T00:06:06.483Z,2.10
2022-08-12T00:11:17.983Z,2.00
2022-08-12T00:16:31.142Z,1.83
2022-08-12T00:21:41.391Z,1.67
2022-08-12T00:32:36.027Z,2.17
2022-08-12T00:37:31.605Z,2.03
2022-08-12T00:42:43.764Z,2.37
2022-08-12T00:47:53.698Z,1.80
2022-08-12T00:53:00.493Z,1.87
2022-08-12T00:58:08.435Z,1.67
2022-08-12T01:03:21.470Z,1.43
2022-08-12T01:08:32.186Z,1.90
2022-08-12T01:13:44.768Z,1.80
2022-08-12T01:18:55.282Z,2.40
2022-08-12T01:24:30.142Z,2.23
2022-08-12T01:29:19.843Z,2.30
2022-08-12T01:34:36.130Z,2.30
2022-08-12T01:40:31.595Z,2.20
2022-08-12T01:44:58.204Z,1.87
2022-08-12T01:50:10.717Z,2.00
2022-08-12T01:55:20.944Z,1.90
2022-08-12T02:00:55.958Z,1.70
2022-08-12T02:06:06.848Z,1.50
2022-08-12T02:11:18.596Z,1.57
2022-08-12T02:16:30.555Z,1.90
2022-08-12T02:21:45.728Z,2.13
2022-08-12T02:26:54.122Z,2.03
2022-08-12T02:32:10.080Z,1.77
2022-08-12T02:37:19.859Z,2.05
2022-08-12T02:42:29.396Z,2.20
2022-08-12T02:47:58.423Z,2.30
2022-08-12T02:52:53.484Z,2.60
2022-08-12T02:58:06.774Z,2.17
2022-08-12T03:03:16.806Z,2.13
2022-08-12T03:08:31.930Z,2.30
2022-08-12T03:13:36.919Z,2.37
2022-08-12T03:18:46.144Z,2.20
2022-08-12T03:23:58.051Z,2.27
2022-08-12T03:29:07.303Z,2.50
2022-08-12T03:34:18.227Z,2.40
2022-08-12T03:39:35.966Z,2.20
2022-08-12T03:44:42.458Z,2.37
2022-08-12T03:49:53.271Z,2.60
2022-08-12T03:55:03.295Z,3.00
2022-08-12T04:00:24.301Z,3.30
2022-08-12T04:05:54.393Z,2.80
2022-08-12T04:10:37.691Z,2.70
2022-08-12T04:15:49.199Z,2.60
2022-08-12T04:20:57.597Z,1.87
2022-08-12T04:26:10.189Z,2.57
2022-08-12T04:31:22.790Z,2.60
2022-08-12T04:36:32.483Z,3.17
2022-08-12T04:41:49.482Z,2.20
2022-08-12T04:46:51.876Z,2.77
2022-08-12T04:52:00.695Z,2.30
2022-08-12T04:57:10.115Z,2.33
2022-08-12T05:02:21.555Z,2.30
2022-08-12T05:07:30.123Z,2.40
2022-08-12T05:12:41.187Z,2.60
2022-08-12T05:17:49.850Z,2.53
2022-08-12T05:23:10.033Z,2.40
2022-08-12T05:28:13.288Z,2.50
2022-08-12T05:33:26.051Z,2.60
2022-08-12T05:38:39.728Z,2.00
2022-08-12T05:43:51.040Z,1.90
2022-08-12T05:49:01.319Z,2.43
2022-08-12T05:54:14.281Z,1.80
2022-08-12T05:59:27.577Z,2.07
2022-08-12T06:04:36.054Z,1.83
2022-08-12T06:09:44.178Z,1.60
2022-08-12T06:14:54.928Z,2.00
2022-08-12T06:20:25.844Z,1.70
2022-08-12T06:25:18.375Z,1.90
2022-08-12T06:30:36.814Z,1.43
2022-08-12T06:35:47.060Z,1.90
2022-08-12T06:40:47.497Z,1.90
2022-08-12T06:45:57.472Z,1.50
2022-08-12T06:51:10.955Z,1.57
2022-08-12T06:56:45.965Z,1.85
2022-08-12T07:01:39.675Z,1.97
2022-08-12T07:06:57.339Z,1.80
2022-08-12T07:17:40.950Z,1.40
2022-08-12T07:22:55.081Z,2.40
2022-08-12T07:28:08.951Z,1.77
2022-08-12T07:33:26.000Z,1.50
2022-08-12T07:44:21.992Z,1.13
2022-08-12T07:49:34.541Z,1.10
2022-08-12T07:54:59.449Z,1.60
2022-08-12T13:18:56.990Z,1.33
2022-08-12T13:24:09.641Z,2.13
2022-08-12T13:29:15.269Z,1.53
2022-08-12T13:34:33.878Z,2.20
2022-08-12T13:39:35.117Z,1.60
2022-08-12T13:44:46.256Z,1.80
2022-08-12T13:49:56.237Z,1.40
2022-08-12T13:55:06.206Z,1.60
2022-08-12T14:00:14.417Z,2.40
2022-08-12T14:05:31.510Z,1.43
2022-08-12T14:10:36.777Z,1.53
2022-08-12T14:15:49.084Z,1.70
2022-08-12T14:21:00.331Z,1.57
2022-08-12T14:26:11.951Z,1.47
2022-08-12T14:31:21.698Z,1.57
2022-08-12T14:36:29.540Z,1.27
2022-08-12T14:41:48.094Z,1.77
2022-08-12T14:46:53.106Z,1.70
2022-08-12T14:52:42.744Z,1.43
2022-08-12T14:57:23.115Z,1.90
2022-08-12T15:02:21.426Z,1.60
2022-08-12T15:07:34.090Z,1.70
2022-08-12T15:12:40.894Z,1.67
2022-08-12T15:17:59.159Z,1.80
2022-08-12T15:23:00.724Z,1.80
2022-08-12T15:28:21.298Z,1.90
2022-08-12T15:33:21.107Z,2.40
2022-08-12T15:38:31.544Z,2.70
2022-08-12T15:44:36.666Z,2.10
2022-08-12T15:48:50.770Z,2.33
2022-08-12T15:54:00.269Z,2.10
2022-08-12T15:59:12.815Z,2.30
2022-08-12T16:04:21.979Z,2.00
2022-08-12T16:09:45.459Z,2.07
2022-08-12T16:14:40.236Z,2.83
2022-08-12T16:20:02.632Z,2.27
2022-08-12T16:24:58.058Z,2.73
2022-08-12T16:30:07.425Z,2.20
2022-08-12T16:35:17.116Z,2.50
2022-08-12T16:40:25.047Z,2.70
2022-08-12T16:46:05.626Z,2.17
2022-08-12T16:50:47.947Z,2.50
2022-08-12T16:56:02.587Z,2.40
2022-08-12T17:01:12.157Z,2.40
2022-08-12T17:06:27.381Z,2.30
2022-08-12T17:11:34.504Z,2.40
2022-08-12T17:16:44.984Z,2.47
2022-08-12T17:22:01.644Z,3.17
2022-08-12T17:27:14.463Z,2.70
2022-08-12T17:32:15.399Z,2.50
2022-08-12T17:37:24.968Z,2.77
2022-08-12T17:42:34.367Z,2.97
2022-08-12T17:47:45.079Z,2.97
2022-08-12T17:52:56.058Z,3.37
2022-08-12T17:58:03.725Z,3.13
2022-08-12T18:04:04.396Z,2.97
2022-08-12T18:08:29.130Z,2.77
2022-08-12T18:13:40.650Z,2.90
2022-08-12T18:18:49.004Z,2.87
2022-08-12T18:23:58.229Z,3.00
2022-08-12T18:29:08.339Z,3.50
2022-08-12T18:34:17.337Z,3.03
2022-08-12T18:39:26.200Z,3.90
2022-08-12T18:44:35.772Z,3.50
2022-08-12T18:49:45.427Z,3.20
2022-08-12T18:54:59.389Z,4.00
2022-08-12T19:00:08.695Z,3.93
2022-08-12T19:05:18.117Z,4.40
2022-08-12T19:10:27.166Z,3.87
2022-08-12T19:15:43.151Z,3.93
2022-08-12T19:20:50.621Z,4.30
2022-08-12T19:26:02.172Z,5.50
2022-08-12T19:31:13.521Z,5.27
2022-08-12T19:36:25.824Z,5.33
2022-08-12T19:41:42.785Z,5.23
2022-08-12T19:46:52.742Z,8.13
2022-08-12T19:51:57.875Z,16.87
2022-08-12T19:57:06.971Z,17.60
2022-08-12T20:02:18.566Z,12.73
2022-08-12T20:07:34.601Z,10.23
2022-08-12T20:12:59.355Z,8.73
2022-08-12T20:17:50.785Z,8.07
2022-08-12T20:23:00.066Z,7.13
2022-08-12T20:28:09.851Z,7.37
2022-08-12T20:33:23.144Z,8.17
2022-08-12T20:38:27.743Z,6.67
2022-08-12T20:43:37.691Z,7.63
2022-08-12T20:48:55.334Z,8.17
2022-08-12T20:53:59.470Z,8.13
2022-08-12T20:59:11.253Z,7.30
2022-08-12T21:04:23.592Z,6.83
2022-08-12T21:09:33.990Z,8.13
2022-08-12T21:14:53.916Z,7.67
2022-08-12T21:19:54.442Z,7.57
2022-08-12T21:25:16.833Z,7.83
2022-08-12T21:30:16.435Z,10.87
2022-08-12T21:35:26.010Z,8.03
2022-08-12T21:40:37.345Z,9.23
2022-08-12T21:46:00.915Z,9.23
2022-08-12T21:50:56.084Z,8.17
2022-08-12T21:56:06.021Z,6.97
2022-08-12T22:01:22.811Z,7.40
2022-08-12T22:06:31.753Z,6.80
2022-08-12T22:11:41.695Z,6.50
2022-08-12T22:16:46.929Z,7.53
2022-08-12T22:21:55.763Z,7.87
2022-08-12T22:27:08.042Z,9.20
2022-08-12T22:32:15.705Z,9.20
2022-08-12T22:37:23.765Z,9.10
2022-08-12T22:42:33.408Z,8.53
2022-08-12T22:47:53.614Z,9.53
2022-08-12T22:52:52.491Z,10.37
2022-08-12T22:58:00.351Z,10.17
2022-08-12T23:03:12.128Z,9.07
2022-08-12T23:08:18.132Z,10.17
2022-08-12T23:13:29.045Z,9.87
2022-08-12T23:18:38.693Z,10.57
2022-08-12T23:24:09.649Z,9.67
2022-08-12T23:29:00.384Z,10.70
2022-08-12T23:34:09.947Z,11.60
2022-08-12T23:40:13.678Z,12.40
2022-08-12T23:44:31.588Z,11.17
2022-08-12T23:49:57.860Z,11.30
2022-08-12T23:54:58.540Z,10.20
2022-08-12T23:59:59.411Z,11.30
